createdAt,value
2023-02-19T00:02:00.838Z,19.37
2023-02-19T00:04:29.334Z,19.37
2023-02-19T00:06:57.734Z,19.37
2023-02-19T00:09:27.157Z,19.36
2023-02-19T00:11:55.636Z,19.36
2023-02-19T00:14:24.103Z,19.36
2023-02-19T00:16:52.569Z,19.36
2023-02-19T00:19:22.634Z,19.36
2023-02-19T00:21:53.391Z,19.36
2023-02-19T00:24:22.973Z,19.36
2023-02-19T00:26:51.502Z,19.34
2023-02-19T00:29:21.684Z,19.35
2023-02-19T00:31:50.427Z,19.35
2023-02-19T00:34:19.014Z,19.35
2023-02-19T00:36:48.831Z,19.34
2023-02-19T00:39:18.516Z,19.35
2023-02-19T00:41:47.236Z,19.34
2023-02-19T00:44:16.179Z,19.34
2023-02-19T00:46:47.239Z,19.34
2023-02-19T00:49:18.839Z,19.33
2023-02-19T00:51:49.256Z,19.32
2023-02-19T00:54:17.968Z,19.31
2023-02-19T00:56:48.027Z,19.33
2023-02-19T00:59:16.816Z,19.33
2023-02-19T01:01:45.706Z,19.32
2023-02-19T01:04:16.377Z,19.32
2023-02-19T01:06:44.825Z,19.34
2023-02-19T01:09:14.628Z,19.32
2023-02-19T01:11:43.196Z,19.34
2023-02-19T01:14:12.081Z,19.33
2023-02-19T01:16:40.587Z,19.33
2023-02-19T01:19:09.059Z,19.33
2023-02-19T01:21:37.635Z,19.34
2023-02-19T01:24:06.459Z,19.34
2023-02-19T01:26:36.254Z,19.34
2023-02-19T01:29:05.603Z,19.34
2023-02-19T01:31:34.286Z,19.34
2023-02-19T01:34:05.306Z,19.34
2023-02-19T01:36:34.973Z,19.33
2023-02-19T01:39:06.189Z,19.34
2023-02-19T01:41:39.548Z,19.34
2023-02-19T01:44:11.370Z,19.33
2023-02-19T01:46:41.423Z,19.32
2023-02-19T01:49:15.602Z,19.33
2023-02-19T01:51:45.818Z,19.33
2023-02-19T01:54:17.367Z,19.34
2023-02-19T01:56:50.047Z,19.33
2023-02-19T01:59:19.834Z,19.33
2023-02-19T02:01:48.572Z,19.33
2023-02-19T02:04:18.413Z,19.33
2023-02-19T02:06:50.686Z,19.33
2023-02-19T02:09:38.541Z,19.33
2023-02-19T02:12:08.796Z,19.33
2023-02-19T02:14:41.170Z,19.32
2023-02-19T02:17:21.321Z,19.33
2023-02-19T02:20:07.773Z,19.32
2023-02-19T02:22:39.148Z,19.32
2023-02-19T02:25:28.957Z,19.32
2023-02-19T02:28:15.626Z,19.32
2023-02-19T02:30:48.665Z,19.32
2023-02-19T02:33:26.300Z,19.31
2023-02-19T02:35:58.962Z,19.32
2023-02-19T02:38:32.562Z,19.31
2023-02-19T02:41:01.410Z,19.31
2023-02-19T02:43:31.332Z,19.32
2023-02-19T02:46:01.438Z,19.32
2023-02-19T02:48:38.339Z,19.31
2023-02-19T02:51:13.120Z,19.30
2023-02-19T02:54:06.574Z,19.30
2023-02-19T02:56:35.997Z,19.30
2023-02-19T02:59:08.945Z,19.29
2023-02-19T03:02:01.953Z,19.30
2023-02-19T03:04:35.950Z,19.29
2023-02-19T03:07:06.541Z,19.30
2023-02-19T03:09:40.609Z,19.30
2023-02-19T03:12:33.311Z,19.30
2023-02-19T03:15:25.819Z,19.29
2023-02-19T03:18:18.080Z,19.30
2023-02-19T03:20:52.631Z,19.29
2023-02-19T03:23:44.306Z,19.28
2023-02-19T03:26:12.886Z,19.28
2023-02-19T03:29:11.029Z,19.28
2023-02-19T03:31:44.740Z,19.29
2023-02-19T03:34:18.426Z,19.28
2023-02-19T03:36:52.666Z,19.27
2023-02-19T03:39:23.259Z,19.28
2023-02-19T03:42:01.585Z,19.28
2023-02-19T03:44:41.779Z,19.28
2023-02-19T03:47:15.356Z,19.28
2023-02-19T03:49:50.082Z,19.27
2023-02-19T03:52:25.611Z,19.28
2023-02-19T03:55:02.624Z,19.27
2023-02-19T03:57:38.893Z,19.27
2023-02-19T04:00:12.703Z,19.27
2023-02-19T04:02:47.106Z,19.26
2023-02-19T04:05:20.334Z,19.27
2023-02-19T04:07:51.987Z,19.25
2023-02-19T04:10:25.985Z,19.26
2023-02-19T04:13:00.800Z,19.24
2023-02-19T04:15:33.015Z,19.26
2023-02-19T04:18:05.594Z,19.26
2023-02-19T04:20:40.244Z,19.26
2023-02-19T04:23:09.511Z,19.25
2023-02-19T04:25:40.856Z,19.25
2023-02-19T04:28:10.088Z,19.24
2023-02-19T04:30:38.633Z,19.25
2023-02-19T04:33:07.111Z,19.25
2023-02-19T04:35:36.879Z,19.25
2023-02-19T04:38:05.413Z,19.25
2023-02-19T04:40:33.918Z,19.25
2023-02-19T04:43:02.418Z,19.25
2023-02-19T04:45:30.896Z,19.26
2023-02-19T04:47:59.560Z,19.25
2023-02-19T04:50:27.977Z,19.26
2023-02-19T04:52:57.850Z,19.25
2023-02-19T04:55:26.318Z,19.25
2023-02-19T04:57:54.689Z,19.25
2023-02-19T05:00:23.275Z,19.26
2023-02-19T05:02:51.748Z,19.25
2023-02-19T05:05:20.185Z,19.26
2023-02-19T05:07:48.734Z,19.26
2023-02-19T05:10:18.797Z,19.26
2023-02-19T05:12:47.266Z,19.25
2023-02-19T05:15:15.802Z,19.26
2023-02-19T05:17:44.282Z,19.25
2023-02-19T05:20:12.886Z,19.25
2023-02-19T05:22:41.294Z,19.25
2023-02-19T05:25:09.824Z,19.24
2023-02-19T05:27:40.091Z,19.25
2023-02-19T05:30:09.733Z,19.26
2023-02-19T05:32:38.812Z,19.25
2023-02-19T05:35:07.795Z,19.25
2023-02-19T05:37:36.276Z,19.25
2023-02-19T05:40:05.500Z,19.25
2023-02-19T05:42:33.904Z,19.25
2023-02-19T05:45:03.757Z,19.25
2023-02-19T05:47:32.216Z,19.24
2023-02-19T05:50:00.579Z,19.24
2023-02-19T05:52:29.073Z,19.25
2023-02-19T05:54:57.493Z,19.24
2023-02-19T05:57:25.975Z,19.24
2023-02-19T05:59:54.467Z,19.24
2023-02-19T06:02:24.299Z,19.24
2023-02-19T06:04:52.951Z,19.23
2023-02-19T06:07:21.450Z,19.23
2023-02-19T06:09:51.326Z,19.23
2023-02-19T06:12:19.788Z,19.22
2023-02-19T06:14:48.795Z,19.23
2023-02-19T06:17:17.653Z,19.23
2023-02-19T06:19:47.521Z,19.23
2023-02-19T06:22:16.640Z,19.23
2023-02-19T06:24:45.151Z,19.23
2023-02-19T06:27:13.673Z,19.22
2023-02-19T06:29:42.159Z,19.23
2023-02-19T06:32:11.882Z,19.22
2023-02-19T06:34:40.478Z,19.22
2023-02-19T06:37:10.342Z,19.22
2023-02-19T06:39:38.882Z,19.22
2023-02-19T06:42:07.400Z,19.21
2023-02-19T06:44:35.935Z,19.22
2023-02-19T06:47:04.560Z,19.21
2023-02-19T06:49:32.975Z,19.21
2023-02-19T06:52:02.022Z,19.21
2023-02-19T06:54:33.344Z,19.21
2023-02-19T06:57:03.222Z,19.21
2023-02-19T06:59:31.782Z,19.20
2023-02-19T07:02:00.199Z,19.20
2023-02-19T07:04:28.854Z,19.20
2023-02-19T07:06:57.467Z,19.20
2023-02-19T07:09:28.406Z,19.21
2023-02-19T07:11:58.274Z,19.20
2023-02-19T07:14:26.706Z,19.20
2023-02-19T07:16:55.504Z,19.20
2023-02-19T07:19:23.962Z,19.19
2023-02-19T07:21:52.361Z,19.18
2023-02-19T07:24:21.664Z,19.19
2023-02-19T07:26:50.189Z,19.20
2023-02-19T07:29:20.015Z,19.18
2023-02-19T07:31:48.486Z,19.18
2023-02-19T07:34:17.018Z,19.18
2023-02-19T07:36:45.463Z,19.17
2023-02-19T07:39:15.691Z,19.17
2023-02-19T07:41:44.242Z,19.17
2023-02-19T07:44:20.664Z,19.14
2023-02-19T07:46:49.110Z,19.09
2023-02-19T07:49:17.732Z,19.05
2023-02-19T07:51:46.214Z,19.05
2023-02-19T07:54:14.753Z,19.05
2023-02-19T07:56:43.239Z,19.07
2023-02-19T07:59:11.779Z,19.08
2023-02-19T08:01:58.153Z,19.08
2023-02-19T08:04:26.503Z,19.10
2023-02-19T08:06:55.027Z,19.10
2023-02-19T08:09:23.507Z,19.14
2023-02-19T08:12:09.435Z,19.16
2023-02-19T08:14:37.887Z,19.20
2023-02-19T08:17:07.784Z,19.23
2023-02-19T08:19:36.333Z,19.26
2023-02-19T08:22:04.915Z,19.26
2023-02-19T08:24:33.863Z,19.25
2023-02-19T08:27:02.307Z,19.27
2023-02-19T08:29:30.869Z,19.30
2023-02-19T08:31:59.400Z,19.32
2023-02-19T08:34:29.183Z,19.35
2023-02-19T08:36:57.600Z,19.36
2023-02-19T08:39:26.026Z,19.37
2023-02-19T08:41:54.453Z,19.37
2023-02-19T08:44:22.977Z,19.38
2023-02-19T08:46:51.440Z,19.39
2023-02-19T08:49:19.887Z,19.39
2023-02-19T08:51:49.691Z,19.42
2023-02-19T08:54:18.122Z,19.43
2023-02-19T08:56:46.606Z,19.43
2023-02-19T08:59:15.029Z,19.47
2023-02-19T09:01:43.580Z,19.48
2023-02-19T09:04:13.608Z,19.48
2023-02-19T09:06:42.079Z,19.50
2023-02-19T09:09:11.940Z,19.50
2023-02-19T09:11:40.464Z,19.52
2023-02-19T09:14:09.319Z,19.52
2023-02-19T09:16:38.422Z,19.53
2023-02-19T09:19:06.951Z,19.53
2023-02-19T09:21:35.526Z,19.53
2023-02-19T09:24:04.202Z,19.54
2023-02-19T09:26:34.041Z,19.54
2023-02-19T09:29:02.518Z,19.55
2023-02-19T09:31:31.528Z,19.56
2023-02-19T09:34:00.008Z,19.56
2023-02-19T09:36:28.565Z,19.58
2023-02-19T09:38:57.056Z,19.58
2023-02-19T09:41:31.488Z,19.58
2023-02-19T09:44:03.487Z,19.58
2023-02-19T09:46:35.614Z,19.59
2023-02-19T09:49:07.673Z,19.60
2023-02-19T09:51:39.014Z,19.61
2023-02-19T09:54:14.411Z,19.61
2023-02-19T09:56:42.953Z,19.62
2023-02-19T09:59:20.470Z,19.62
2023-02-19T10:01:54.424Z,19.63
2023-02-19T10:04:22.947Z,19.63
2023-02-19T10:06:52.322Z,19.62
2023-02-19T10:09:23.573Z,19.57
2023-02-19T10:11:54.725Z,19.55
2023-02-19T10:14:33.850Z,19.54
2023-02-19T10:17:05.462Z,19.53
2023-02-19T10:19:34.790Z,19.54
2023-02-19T10:22:04.456Z,19.56
2023-02-19T10:24:33.137Z,19.57
2023-02-19T10:27:01.843Z,19.58
2023-02-19T10:29:31.667Z,19.59
2023-02-19T10:32:22.929Z,19.60
2023-02-19T10:35:09.603Z,19.61
2023-02-19T10:37:44.410Z,19.61
2023-02-19T10:40:17.408Z,19.62
2023-02-19T10:42:48.200Z,19.61
2023-02-19T10:45:25.376Z,19.62
2023-02-19T10:47:54.174Z,19.62
2023-02-19T10:50:27.837Z,19.63
2023-02-19T10:52:59.108Z,19.64
2023-02-19T10:55:31.405Z,19.64
2023-02-19T10:58:16.208Z,19.65
2023-02-19T11:00:46.011Z,19.65
2023-02-19T11:03:20.169Z,19.66
2023-02-19T11:05:58.277Z,19.68
2023-02-19T11:08:26.750Z,19.67
2023-02-19T11:10:55.411Z,19.68
2023-02-19T11:13:30.342Z,19.71
2023-02-19T11:16:01.359Z,19.70
2023-02-19T11:18:32.398Z,19.70
2023-02-19T11:21:03.310Z,19.73
2023-02-19T11:23:35.672Z,19.73
2023-02-19T11:26:06.873Z,19.73
2023-02-19T11:28:38.169Z,19.75
2023-02-19T11:31:27.490Z,19.75
2023-02-19T11:34:00.779Z,19.77
2023-02-19T11:36:34.569Z,19.76
2023-02-19T11:39:28.968Z,19.76
2023-02-19T11:42:29.522Z,19.74
2023-02-19T11:45:13.860Z,19.68
2023-02-19T11:48:15.895Z,19.65
2023-02-19T11:51:00.008Z,19.62
2023-02-19T11:53:31.977Z,19.60
2023-02-19T11:56:14.051Z,19.58
2023-02-19T11:59:01.850Z,19.56
2023-02-19T12:01:46.511Z,19.55
2023-02-19T12:04:47.095Z,19.53
2023-02-19T12:07:24.762Z,19.51
2023-02-19T12:10:04.636Z,19.50
2023-02-19T12:12:44.134Z,19.50
2023-02-19T12:15:27.840Z,19.48
2023-02-19T12:18:26.159Z,19.48
2023-02-19T12:21:07.474Z,19.46
2023-02-19T12:24:04.020Z,19.46
2023-02-19T12:26:40.948Z,19.46
2023-02-19T12:29:24.263Z,19.44
2023-02-19T12:32:22.285Z,19.43
2023-02-19T12:35:09.553Z,19.44
2023-02-19T12:37:48.988Z,19.41
2023-02-19T12:40:31.246Z,19.40
2023-02-19T12:43:12.060Z,19.40
2023-02-19T12:45:46.616Z,19.40
2023-02-19T12:48:25.192Z,19.39
2023-02-19T12:50:58.277Z,19.37
2023-02-19T12:53:39.225Z,19.37
2023-02-19T12:56:15.717Z,19.34
2023-02-19T12:58:49.780Z,19.33
2023-02-19T13:01:23.413Z,19.31
2023-02-19T13:04:03.863Z,19.31
2023-02-19T13:06:41.224Z,19.30
2023-02-19T13:09:16.581Z,19.28
2023-02-19T13:11:49.477Z,19.27
2023-02-19T13:14:25.298Z,19.24
2023-02-19T13:16:58.918Z,19.24
2023-02-19T13:19:27.363Z,19.24
2023-02-19T13:22:34.994Z,19.23
2023-02-19T13:25:08.093Z,19.23
2023-02-19T13:28:00.273Z,19.22
2023-02-19T13:30:40.673Z,19.21
2023-02-19T13:33:27.346Z,19.20
2023-02-19T13:36:15.723Z,19.20
2023-02-19T13:38:46.398Z,19.20
2023-02-19T13:41:28.539Z,19.16
2023-02-19T13:44:05.840Z,19.19
2023-02-19T13:46:38.747Z,19.19
2023-02-19T13:49:43.268Z,19.19
2023-02-19T13:52:40.545Z,19.19
2023-02-19T13:55:48.424Z,19.19
2023-02-19T13:58:54.070Z,19.19
2023-02-19T14:01:57.952Z,19.19
2023-02-19T14:04:44.509Z,19.18
2023-02-19T14:07:38.757Z,19.18
2023-02-19T14:10:14.087Z,19.18
2023-02-19T14:12:42.585Z,19.17
2023-02-19T14:15:49.738Z,19.18
2023-02-19T14:18:43.766Z,19.16
2023-02-19T14:21:26.133Z,19.17
2023-02-19T14:23:57.632Z,19.17
2023-02-19T14:26:27.564Z,19.16
2023-02-19T14:28:56.299Z,19.15
2023-02-19T14:31:30.159Z,19.16
2023-02-19T14:34:01.477Z,19.19
2023-02-19T14:36:39.845Z,19.22
2023-02-19T14:39:14.761Z,19.25
2023-02-19T14:41:46.709Z,19.30
2023-02-19T14:44:20.030Z,19.32
2023-02-19T14:46:55.780Z,19.36
2023-02-19T14:49:29.972Z,19.37
2023-02-19T14:52:06.738Z,19.39
2023-02-19T14:54:42.264Z,19.41
2023-02-19T14:57:18.441Z,19.39
2023-02-19T14:59:55.052Z,19.38
2023-02-19T15:02:25.882Z,19.37
2023-02-19T15:04:55.139Z,19.36
2023-02-19T15:07:27.553Z,19.33
2023-02-19T15:09:58.586Z,19.36
2023-02-19T15:12:31.307Z,19.37
2023-02-19T15:15:03.628Z,19.41
2023-02-19T15:17:34.980Z,19.41
2023-02-19T15:20:06.272Z,19.44
2023-02-19T15:22:36.311Z,19.46
2023-02-19T15:25:07.122Z,19.47
2023-02-19T15:27:37.384Z,19.48
2023-02-19T15:30:21.124Z,19.50
2023-02-19T15:32:54.581Z,19.52
2023-02-19T15:35:25.105Z,19.52
2023-02-19T15:37:56.147Z,19.51
2023-02-19T15:40:29.345Z,19.54
2023-02-19T15:43:00.025Z,19.55
2023-02-19T15:45:42.322Z,19.56
2023-02-19T15:48:15.704Z,19.55
2023-02-19T15:50:47.967Z,19.57
2023-02-19T15:53:22.814Z,19.58
2023-02-19T15:55:59.977Z,19.59
2023-02-19T15:58:34.014Z,19.60
2023-02-19T16:01:04.400Z,19.61
2023-02-19T16:03:33.673Z,19.63
2023-02-19T16:06:05.296Z,19.63
2023-02-19T16:08:36.659Z,19.63
2023-02-19T16:11:27.400Z,19.64
2023-02-19T16:14:18.031Z,19.64
2023-02-19T16:16:49.469Z,19.63
2023-02-19T16:19:22.742Z,19.65
2023-02-19T16:21:52.070Z,19.65
2023-02-19T16:24:29.208Z,19.67
2023-02-19T16:26:59.231Z,19.66
2023-02-19T16:29:31.557Z,19.66
2023-02-19T16:32:03.359Z,19.68
2023-02-19T16:34:35.295Z,19.67
2023-02-19T16:37:04.653Z,19.69
2023-02-19T16:39:35.154Z,19.68
2023-02-19T16:42:15.412Z,19.69
2023-02-19T16:44:45.257Z,19.70
2023-02-19T16:47:19.472Z,19.71
2023-02-19T16:49:48.003Z,19.71
2023-02-19T16:52:17.141Z,19.70
2023-02-19T16:54:48.803Z,19.67
2023-02-19T16:57:17.519Z,19.65
2023-02-19T16:59:45.982Z,19.63
2023-02-19T17:02:20.300Z,19.61
2023-02-19T17:04:50.183Z,19.58
2023-02-19T17:07:19.691Z,19.57
2023-02-19T17:09:49.579Z,19.55
2023-02-19T17:12:19.053Z,19.54
2023-02-19T17:14:47.654Z,19.53
2023-02-19T17:17:16.220Z,19.52
2023-02-19T17:19:44.792Z,19.50
2023-02-19T17:22:16.889Z,19.50
2023-02-19T17:24:45.972Z,19.49
2023-02-19T17:27:16.135Z,19.48
2023-02-19T17:29:44.907Z,19.48
2023-02-19T17:32:14.495Z,19.46
2023-02-19T17:34:43.169Z,19.42
2023-02-19T17:37:11.860Z,19.34
2023-02-19T17:39:40.358Z,19.27
2023-02-19T17:42:08.916Z,19.24
2023-02-19T17:44:38.856Z,19.20
2023-02-19T17:47:07.511Z,19.19
2023-02-19T17:49:36.316Z,19.20
2023-02-19T17:52:05.596Z,19.21
2023-02-19T17:54:34.247Z,19.22
2023-02-19T17:57:02.876Z,19.23
2023-02-19T17:59:31.336Z,19.23
2023-02-19T18:02:03.184Z,19.25
2023-02-19T18:04:31.852Z,19.25
2023-02-19T18:07:00.884Z,19.23
2023-02-19T18:09:29.382Z,19.23
2023-02-19T18:11:57.933Z,19.22
2023-02-19T18:14:26.503Z,19.21
2023-02-19T18:16:55.202Z,19.20
2023-02-19T18:19:26.021Z,19.19
2023-02-19T18:21:54.686Z,19.22
2023-02-19T18:24:23.176Z,19.28
2023-02-19T18:26:51.796Z,19.31
2023-02-19T18:29:21.924Z,19.35
2023-02-19T18:31:50.588Z,19.38
2023-02-19T18:34:20.307Z,19.41
2023-02-19T18:36:50.722Z,19.42
2023-02-19T18:39:19.355Z,19.45
2023-02-19T18:41:48.836Z,19.48
2023-02-19T18:44:20.657Z,19.49
2023-02-19T18:46:49.952Z,19.49
2023-02-19T18:49:18.711Z,19.51
2023-02-19T18:51:47.577Z,19.53
2023-02-19T18:54:17.538Z,19.52
2023-02-19T18:56:47.335Z,19.53
2023-02-19T18:59:16.038Z,19.54
2023-02-19T19:01:44.621Z,19.54
2023-02-19T19:04:13.447Z,19.55
2023-02-19T19:06:41.990Z,19.56
2023-02-19T19:09:10.647Z,19.56
2023-02-19T19:11:41.308Z,19.56
2023-02-19T19:14:09.851Z,19.56
2023-02-19T19:16:38.562Z,19.58
2023-02-19T19:19:07.210Z,19.57
2023-02-19T19:21:35.694Z,19.58
2023-02-19T19:24:04.445Z,19.58
2023-02-19T19:26:33.363Z,19.58
2023-02-19T19:29:03.179Z,19.58
2023-02-19T19:31:36.291Z,19.59
2023-02-19T19:34:04.906Z,19.60
2023-02-19T19:36:33.853Z,19.60
2023-02-19T19:39:02.676Z,19.61
2023-02-19T19:41:31.846Z,19.63
2023-02-19T19:44:05.335Z,19.62
2023-02-19T19:46:34.252Z,19.64
2023-02-19T19:49:03.079Z,19.63
2023-02-19T19:51:32.923Z,19.64
2023-02-19T19:54:03.084Z,19.65
2023-02-19T19:56:31.923Z,19.65
2023-02-19T19:59:00.410Z,19.66
2023-02-19T20:01:30.377Z,19.67
2023-02-19T20:03:59.053Z,19.66
2023-02-19T20:06:29.250Z,19.67
2023-02-19T20:08:59.523Z,19.67
2023-02-19T20:11:28.199Z,19.68
2023-02-19T20:13:56.635Z,19.68
2023-02-19T20:16:27.041Z,19.67
2023-02-19T20:18:57.071Z,19.68
2023-02-19T20:21:26.354Z,19.67
2023-02-19T20:23:54.926Z,19.67
2023-02-19T20:26:25.510Z,19.69
2023-02-19T20:28:54.523Z,19.67
2023-02-19T20:31:23.587Z,19.67
2023-02-19T20:33:52.584Z,19.67
2023-02-19T20:36:22.430Z,19.73
2023-02-19T20:38:51.252Z,19.77
2023-02-19T20:41:19.993Z,19.76
2023-02-19T20:43:48.688Z,19.71
2023-02-19T20:46:17.567Z,19.66
2023-02-19T20:48:46.159Z,19.63
2023-02-19T20:51:14.811Z,19.59
2023-02-19T20:53:44.791Z,19.56
2023-02-19T20:56:13.648Z,19.53
2023-02-19T20:58:43.669Z,19.49
2023-02-19T21:01:12.669Z,19.47
2023-02-19T21:03:41.168Z,19.44
2023-02-19T21:06:09.997Z,19.41
2023-02-19T21:08:38.688Z,19.38
2023-02-19T21:11:08.498Z,19.37
2023-02-19T21:13:37.151Z,19.34
2023-02-19T21:16:06.206Z,19.32
2023-02-19T21:18:34.970Z,19.32
2023-02-19T21:21:03.545Z,19.28
2023-02-19T21:23:32.079Z,19.27
2023-02-19T21:26:02.935Z,19.27
2023-02-19T21:28:32.817Z,19.26
2023-02-19T21:31:02.456Z,19.24
2023-02-19T21:33:30.966Z,19.23
2023-02-19T21:35:59.534Z,19.23
2023-02-19T21:38:27.985Z,19.22
2023-02-19T21:40:56.533Z,19.21
2023-02-19T21:43:25.010Z,19.21
2023-02-19T21:45:55.013Z,19.20
2023-02-19T21:48:23.962Z,19.19
2023-02-19T21:50:52.506Z,19.17
2023-02-19T21:53:21.015Z,19.19
2023-02-19T21:55:58.211Z,19.17
2023-02-19T21:58:27.121Z,19.16
2023-02-19T22:00:58.189Z,19.15
2023-02-19T22:03:26.908Z,19.16
2023-02-19T22:05:55.642Z,19.14
2023-02-19T22:08:24.156Z,19.16
2023-02-19T22:10:52.608Z,19.14
2023-02-19T22:13:21.060Z,19.13
2023-02-19T22:15:49.625Z,19.12
2023-02-19T22:18:19.470Z,19.12
2023-02-19T22:20:47.921Z,19.10
2023-02-19T22:23:16.499Z,19.11
2023-02-19T22:25:44.960Z,19.11
2023-02-19T22:28:13.522Z,19.10
2023-02-19T22:30:43.020Z,19.10
2023-02-19T22:33:11.700Z,19.11
2023-02-19T22:35:41.718Z,19.10
2023-02-19T22:38:10.148Z,19.09
2023-02-19T22:40:38.655Z,19.09
2023-02-19T22:43:07.168Z,19.08
2023-02-19T22:45:36.608Z,19.08
2023-02-19T22:48:05.197Z,19.08
2023-02-19T22:50:33.700Z,19.08
2023-02-19T22:53:03.535Z,19.08
2023-02-19T22:55:32.046Z,19.07
2023-02-19T22:58:00.451Z,19.07
2023-02-19T23:00:28.916Z,19.07
2023-02-19T23:02:57.542Z,19.06
2023-02-19T23:05:26.073Z,19.05
2023-02-19T23:07:54.466Z,19.06
2023-02-19T23:10:24.301Z,19.06
2023-02-19T23:12:52.744Z,19.06
2023-02-19T23:15:21.245Z,19.04
2023-02-19T23:17:49.670Z,19.06
2023-02-19T23:20:18.191Z,19.05
2023-02-19T23:22:46.610Z,19.04
2023-02-19T23:25:15.257Z,19.05
2023-02-19T23:27:45.083Z,19.04
2023-02-19T23:30:14.211Z,19.03
2023-02-19T23:32:45.068Z,19.02
2023-02-19T23:35:13.716Z,19.02
2023-02-19T23:37:42.162Z,19.02
2023-02-19T23:40:12.097Z,19.02
2023-02-19T23:42:40.551Z,19.01
2023-02-19T23:45:10.754Z,19.01
2023-02-19T23:47:39.341Z,19.01
2023-02-19T23:50:08.643Z,19.00
2023-02-19T23:52:37.013Z,19.00
2023-02-19T23:55:05.994Z,19.00
2023-02-19T23:57:34.501Z,19.00
